Time;durP1;ratioP1;P1;durP2;ratioP2;P2;SDS_P1;SDS_P2;PMS_P1;PMS_P2;Temp;Humidity;BMP_temperature;BMP_pressure;BME280_temperature;BME280_humidity;BME280_pressure;Samples;Min_cycle;Max_cycle;Signal;HPM_P1;HPM_P2
2022/04/26 03:37:12;;;;;;;15.40;9.20;;;8.10;99.90;;;;;;5009431;28;20053;-72
2022/04/26 03:39:39;;;;;;;17.88;10.02;;;8.10;99.90;;;;;;5029726;28;20052;-72
2022/04/26 03:42:06;;;;;;;17.63;9.93;;;8.10;99.90;;;;;;5011220;28;20465;-72
2022/04/26 03:44:32;;;;;;;18.50;10.20;;;8.10;99.90;;;;;;5007572;28;20049;-72
2022/04/26 03:46:58;;;;;;;16.67;9.05;;;8.10;99.90;;;;;;5011893;28;20258;-72
2022/04/26 03:49:24;;;;;;;21.05;10.45;;;8.10;99.90;;;;;;5010047;28;20084;-72
2022/04/26 03:51:53;;;;;;;18.52;8.85;;;8.00;99.90;;;;;;5005942;28;20033;-72
2022/04/26 03:54:20;;;;;;;20.58;9.65;;;8.10;99.90;;;;;;4987986;28;20052;-72
2022/04/26 03:56:46;;;;;;;19.05;9.60;;;8.10;99.90;;;;;;5006524;28;20061;-72
2022/04/26 03:59:12;;;;;;;20.88;10.32;;;8.10;99.90;;;;;;5009620;28;20058;-72
2022/04/26 04:01:39;;;;;;;19.42;10.48;;;8.20;99.90;;;;;;5012109;28;20053;-72
2022/04/26 04:04:05;;;;;;;19.38;10.23;;;8.10;99.90;;;;;;5024908;28;20413;-72
2022/04/26 04:06:30;;;;;;;20.02;10.07;;;8.20;99.90;;;;;;5012376;28;20049;-72
2022/04/26 04:08:57;;;;;;;20.95;10.45;;;8.10;99.90;;;;;;5010705;28;20072;-72
2022/04/26 04:11:23;;;;;;;25.80;10.60;;;8.10;99.90;;;;;;5032103;28;20049;-72
2022/04/26 04:13:49;;;;;;;18.80;10.43;;;8.10;99.90;;;;;;5010783;28;20297;-72
2022/04/26 04:16:14;;;;;;;21.80;11.43;;;8.10;99.90;;;;;;5013073;28;20045;-72
2022/04/26 04:21:24;;;;;;;23.73;10.82;;;8.00;99.90;;;;;;5015752;28;20420;-72
2022/04/26 04:23:50;;;;;;;20.70;10.45;;;8.00;99.90;;;;;;5010926;28;20053;-72
2022/04/26 04:26:16;;;;;;;17.63;9.10;;;8.00;99.90;;;;;;5008844;28;20037;-72
2022/04/26 04:28:42;;;;;;;17.65;9.35;;;8.00;99.90;;;;;;5004231;28;20148;-72
2022/04/26 04:31:10;;;;;;;23.98;10.20;;;8.10;99.90;;;;;;5009805;28;20545;-72
2022/04/26 04:33:39;;;;;;;23.63;11.07;;;8.10;99.90;;;;;;5010077;28;20561;-72
2022/04/26 04:36:05;;;;;;;19.70;9.88;;;8.10;99.90;;;;;;5005676;28;20095;-72
2022/04/26 04:38:31;;;;;;;18.70;9.95;;;8.10;99.90;;;;;;5010233;28;20099;-72
2022/04/26 04:40:57;;;;;;;23.85;10.10;;;8.20;99.90;;;;;;5013345;28;20542;-72
2022/04/26 04:43:23;;;;;;;20.55;10.13;;;8.20;99.90;;;;;;5015651;28;20436;-72
2022/04/26 04:45:49;;;;;;;20.35;10.05;;;8.20;99.90;;;;;;5030801;28;20060;-72
2022/04/26 04:48:15;;;;;;;22.98;10.75;;;8.20;99.90;;;;;;5013565;28;20139;-72
2022/04/26 04:50:42;;;;;;;20.55;10.77;;;8.30;99.90;;;;;;5013006;28;20512;-72
2022/04/26 04:53:08;;;;;;;20.50;11.13;;;8.30;99.90;;;;;;5029491;28;20048;-72
2022/04/26 04:55:34;;;;;;;21.90;11.23;;;8.30;99.90;;;;;;5013130;28;20041;-72
2022/04/26 04:58:00;;;;;;;24.80;9.30;;;8.30;99.90;;;;;;5037445;28;20048;-72
2022/04/26 05:00:26;;;;;;;24.55;9.95;;;8.30;99.90;;;;;;5028950;28;20045;-72
2022/04/26 05:02:52;;;;;;;18.98;9.27;;;8.30;99.90;;;;;;5030593;28;20237;-72
2022/04/26 05:05:18;;;;;;;19.40;9.07;;;8.40;99.90;;;;;;5011350;28;20056;-72
2022/04/26 05:07:44;;;;;;;17.27;9.52;;;8.40;99.90;;;;;;5029476;28;20041;-72
2022/04/26 05:10:10;;;;;;;22.42;10.55;;;8.40;99.90;;;;;;5029648;28;20377;-72
2022/04/26 05:12:36;;;;;;;23.63;9.93;;;8.40;99.90;;;;;;5034126;28;20109;-72
2022/04/26 05:15:02;;;;;;;16.67;9.80;;;8.50;99.90;;;;;;5012300;28;20135;-72
2022/04/26 05:17:29;;;;;;;22.10;10.48;;;8.50;99.90;;;;;;5029467;28;20064;-72
2022/04/26 05:19:55;;;;;;;20.98;9.80;;;8.50;99.90;;;;;;5019652;28;21017;-72
2022/04/26 05:22:21;;;;;;;18.30;9.35;;;8.50;99.90;;;;;;5012023;28;20076;-72
2022/04/26 05:24:53;;;;;;;18.92;9.13;;;8.50;99.90;;;;;;5016039;28;20967;-72
2022/04/26 05:27:29;;;;;;;17.75;7.72;;;8.70;99.90;;;;;;5032836;28;20075;-72
2022/04/26 05:29:55;;;;;;;19.17;8.32;;;8.70;99.90;;;;;;5018546;28;20045;-72
2022/04/26 05:32:27;;;;;;;20.10;8.18;;;8.70;99.90;;;;;;5033392;28;20048;-72
2022/04/26 05:35:02;;;;;;;15.13;7.18;;;8.60;99.90;;;;;;5012191;28;20053;-72
2022/04/26 05:37:32;;;;;;;19.70;8.10;;;8.70;99.90;;;;;;5029288;28;20124;-72
2022/04/26 05:40:02;;;;;;;15.52;7.95;;;8.70;99.90;;;;;;5031137;28;20447;-72
2022/04/26 05:42:28;;;;;;;20.08;9.63;;;8.70;99.90;;;;;;5036320;28;20503;-72
2022/04/26 05:44:55;;;;;;;17.02;7.25;;;8.80;99.90;;;;;;5033833;28;20056;-72
2022/04/26 05:47:21;;;;;;;20.77;7.85;;;8.70;99.90;;;;;;5032862;28;20052;-72
2022/04/26 05:49:47;;;;;;;15.48;8.02;;;8.70;99.90;;;;;;5027909;28;20055;-72
2022/04/26 05:52:13;;;;;;;13.70;7.05;;;8.80;99.90;;;;;;5026284;28;20037;-72
2022/04/26 05:54:39;;;;;;;17.05;8.10;;;8.90;99.90;;;;;;5026346;28;20732;-72
2022/04/26 05:57:05;;;;;;;16.63;7.78;;;8.90;99.90;;;;;;5031798;28;20072;-72
2022/04/26 05:59:31;;;;;;;20.48;7.43;;;8.90;99.90;;;;;;5014446;28;20447;-72
2022/04/26 06:01:57;;;;;;;17.95;7.80;;;9.00;99.90;;;;;;5031731;28;20048;-72
2022/04/26 06:04:24;;;;;;;16.35;6.82;;;9.00;99.90;;;;;;5032087;28;20773;-72
2022/04/26 06:06:51;;;;;;;15.65;6.80;;;8.90;99.90;;;;;;5031996;28;20389;-72
2022/04/26 06:09:17;;;;;;;15.50;6.95;;;9.00;99.90;;;;;;5018455;28;20040;-72
2022/04/26 06:11:43;;;;;;;13.40;6.25;;;8.90;99.90;;;;;;5034535;28;20088;-72
2022/04/26 06:14:09;;;;;;;16.60;7.07;;;8.80;99.90;;;;;;5027461;28;20052;-72
2022/04/26 06:16:35;;;;;;;16.58;7.35;;;9.10;99.90;;;;;;5032293;28;20476;-72
2022/04/26 06:19:02;;;;;;;21.70;7.50;;;9.10;99.90;;;;;;5032422;28;20105;-72
2022/04/26 06:21:28;;;;;;;18.40;7.50;;;9.10;99.90;;;;;;5012201;28;20049;-72
2022/04/26 06:23:54;;;;;;;18.52;7.68;;;9.20;99.90;;;;;;5010532;28;20492;-72
2022/04/26 06:26:20;;;;;;;17.60;7.38;;;9.50;99.90;;;;;;5031227;28;20041;-72
2022/04/26 06:28:45;;;;;;;14.95;6.57;;;9.60;99.90;;;;;;5036752;28;20048;-72
2022/04/26 06:31:33;;;;;;;17.35;7.57;;;9.60;99.90;;;;;;5031739;28;20508;-72
2022/04/26 06:33:59;;;;;;;20.70;6.90;;;9.70;99.90;;;;;;5014542;28;20118;-72
2022/04/26 06:36:25;;;;;;;21.25;7.30;;;9.80;99.90;;;;;;5001112;28;20049;-72
2022/04/26 06:38:50;;;;;;;22.45;7.55;;;10.10;99.90;;;;;;5029447;28;20074;-72
2022/04/26 06:41:17;;;;;;;20.17;7.82;;;10.10;99.90;;;;;;4995543;28;20078;-72
2022/04/26 06:43:42;;;;;;;16.25;6.78;;;10.30;99.90;;;;;;5012875;28;20072;-72
2022/04/26 06:46:08;;;;;;;22.42;7.13;;;10.20;99.90;;;;;;5013953;28;20437;-72
2022/04/26 06:48:34;;;;;;;17.27;6.45;;;10.50;99.90;;;;;;5015856;28;20053;-72
2022/04/26 06:51:00;;;;;;;19.75;7.43;;;10.60;99.90;;;;;;5028620;28;20049;-72
2022/04/26 06:53:26;;;;;;;17.85;6.78;;;11.00;99.90;;;;;;5016759;28;20118;-72
2022/04/26 06:55:52;;;;;;;19.73;6.57;;;10.90;99.90;;;;;;4998526;28;20802;-72
2022/04/26 06:58:18;;;;;;;16.73;6.25;;;11.00;99.90;;;;;;5032975;28;20079;-72
2022/04/26 07:00:46;;;;;;;16.45;5.90;;;11.00;99.90;;;;;;5034570;28;20152;-72
2022/04/26 07:03:12;;;;;;;29.88;6.80;;;10.80;99.90;;;;;;5029216;28;20051;-72
2022/04/26 07:05:38;;;;;;;10.65;5.50;;;10.80;99.90;;;;;;5031436;28;20045;-72
2022/04/26 07:08:04;;;;;;;20.13;5.88;;;10.50;99.90;;;;;;5030164;28;20616;-72
2022/04/26 07:10:30;;;;;;;15.85;5.65;;;10.70;99.90;;;;;;5033836;28;20082;-72
2022/04/26 07:12:56;;;;;;;14.88;5.40;;;10.70;99.90;;;;;;5027113;28;20764;-72
2022/04/26 07:15:22;;;;;;;20.02;5.53;;;10.80;99.90;;;;;;5012969;28;20063;-72
2022/04/26 07:17:48;;;;;;;30.67;6.07;;;11.10;99.90;;;;;;5010503;28;20052;-73
2022/04/26 07:20:13;;;;;;;67.18;7.20;;;11.00;99.90;;;;;;5026678;28;20552;-72
2022/04/26 07:22:39;;;;;;;22.33;6.45;;;10.80;99.90;;;;;;5029458;28;20068;-72
2022/04/26 07:25:12;;;;;;;14.63;5.95;;;10.70;99.90;;;;;;5012492;28;20473;-72
2022/04/26 07:27:38;;;;;;;16.52;5.95;;;10.50;99.90;;;;;;5028961;28;20155;-72
2022/04/26 07:30:04;;;;;;;18.40;6.35;;;10.70;99.90;;;;;;5026302;28;20040;-72
2022/04/26 07:35:15;;;;;;;14.88;5.70;;;10.70;99.90;;;;;;5020326;28;20522;-72
2022/04/26 07:37:41;;;;;;;17.30;6.10;;;10.70;99.90;;;;;;5034135;28;21126;-72
2022/04/26 07:40:07;;;;;;;9.75;5.50;;;11.10;99.90;;;;;;5009167;28;20052;-72
2022/04/26 07:42:33;;;;;;;12.35;5.93;;;11.00;99.90;;;;;;5007822;28;20549;-72
2022/04/26 07:45:00;;;;;;;14.20;6.28;;;11.30;99.90;;;;;;5023007;28;20057;-72
2022/04/26 07:47:26;;;;;;;13.95;6.20;;;11.20;99.90;;;;;;5014529;28;20052;-72
2022/04/26 07:49:55;;;;;;;15.00;6.53;;;11.30;99.90;;;;;;5028173;28;20056;-72
2022/04/26 07:52:23;;;;;;;14.27;6.30;;;11.20;99.90;;;;;;5030846;28;20040;-72
2022/04/26 07:54:49;;;;;;;13.15;6.47;;;11.40;99.90;;;;;;5017320;28;20759;-72
2022/04/26 07:57:15;;;;;;;13.85;6.70;;;11.70;99.90;;;;;;5010165;28;20064;-72
2022/04/26 07:59:41;;;;;;;12.73;5.80;;;11.60;99.90;;;;;;5030183;28;20044;-72
2022/04/26 08:02:07;;;;;;;13.27;5.93;;;11.30;99.90;;;;;;5029234;28;20142;-72
2022/04/26 08:04:33;;;;;;;13.05;6.00;;;11.70;99.90;;;;;;5001205;28;20234;-72
2022/04/26 08:06:59;;;;;;;17.70;5.88;;;12.00;99.90;;;;;;5022540;28;20040;-72
2022/04/26 08:09:25;;;;;;;10.60;5.57;;;12.20;99.90;;;;;;5021486;28;20045;-72
2022/04/26 08:11:51;;;;;;;11.43;5.43;;;11.90;99.90;;;;;;5011216;28;20136;-72
2022/04/26 08:14:17;;;;;;;11.82;5.90;;;12.10;99.90;;;;;;5008019;28;20045;-72
2022/04/26 08:16:42;;;;;;;12.13;5.38;;;12.20;99.90;;;;;;5031309;28;20135;-72
2022/04/26 08:19:11;;;;;;;13.20;5.38;;;12.20;99.90;;;;;;5031256;28;20131;-72
2022/04/26 08:21:38;;;;;;;14.95;5.65;;;12.10;99.90;;;;;;5028671;28;20051;-72
2022/04/26 08:29:33;;;;;;;11.65;5.18;;;12.50;99.90;;;;;;5027646;28;20049;-72
2022/04/26 08:31:59;;;;;;;13.10;5.18;;;12.20;99.90;;;;;;5023586;28;20041;-73
2022/04/26 08:34:25;;;;;;;13.65;5.50;;;12.40;99.90;;;;;;5006014;28;20202;-72
2022/04/26 08:36:51;;;;;;;14.68;5.28;;;12.80;99.90;;;;;;5031264;28;20097;-72
2022/04/26 08:39:17;;;;;;;11.23;4.68;;;12.70;99.90;;;;;;5024256;28;20052;-72
2022/04/26 08:41:42;;;;;;;12.80;4.80;;;12.80;99.90;;;;;;5028234;28;20051;-72
2022/04/26 08:44:11;;;;;;;11.65;5.07;;;13.00;99.90;;;;;;5025361;28;20487;-71
2022/04/26 08:52:08;;;;;;;12.55;5.05;;;13.10;99.90;;;;;;5029305;28;20167;-71
2022/04/26 08:54:34;;;;;;;10.05;4.78;;;14.00;99.90;;;;;;5032752;28;20556;-71
2022/04/26 08:57:00;;;;;;;9.30;4.65;;;13.20;99.90;;;;;;5029620;28;20040;-72
2022/04/26 08:59:27;;;;;;;13.32;4.90;;;13.20;99.90;;;;;;5013480;28;20496;-71
2022/04/26 09:02:18;;;;;;;11.73;4.90;;;13.60;99.90;;;;;;5006430;28;20441;-71
2022/04/26 09:04:44;;;;;;;8.15;3.92;;;14.30;99.90;;;;;;5029143;28;20045;-71
2022/04/26 09:07:12;;;;;;;10.13;4.35;;;13.80;99.90;;;;;;4996645;28;20063;-72
2022/04/26 09:09:40;;;;;;;11.65;4.57;;;14.20;99.90;;;;;;5011349;28;20516;-72
2022/04/26 09:12:10;;;;;;;10.85;4.55;;;14.60;99.90;;;;;;5012060;28;20056;-72
2022/04/26 09:14:48;;;;;;;10.88;4.63;;;13.90;99.90;;;;;;5030640;28;20060;-71
2022/04/26 09:17:18;;;;;;;16.02;4.90;;;14.70;99.90;;;;;;5033043;28;20041;-72
2022/04/26 09:19:49;;;;;;;10.45;4.13;;;14.60;99.90;;;;;;5018066;28;20059;-72
2022/04/26 09:22:20;;;;;;;7.88;3.83;;;14.30;99.90;;;;;;5028871;28;20442;-72
2022/04/26 09:25:03;;;;;;;10.57;3.65;;;14.00;99.90;;;;;;5028815;28;20519;-71
2022/04/26 09:27:29;;;;;;;11.38;4.43;;;14.40;99.90;;;;;;5032032;28;20737;-71
2022/04/26 09:29:55;;;;;;;9.07;3.92;;;13.50;99.90;;;;;;5012548;28;20059;-72
2022/04/26 09:32:25;;;;;;;12.27;3.97;;;13.40;99.90;;;;;;5032014;28;20056;-72
2022/04/26 09:34:51;;;;;;;20.67;4.80;;;13.40;99.90;;;;;;5033401;28;20172;-71
2022/04/26 09:37:17;;;;;;;10.73;3.60;;;13.40;99.90;;;;;;5026030;28;20063;-72
2022/04/26 09:40:05;;;;;;;10.88;3.78;;;13.30;99.90;;;;;;5025236;28;20044;-71
2022/04/26 09:42:32;;;;;;;8.52;3.33;;;13.20;99.90;;;;;;5024862;28;20157;-72
2022/04/26 09:45:05;;;;;;;13.00;4.10;;;13.80;99.90;;;;;;5003168;28;20064;-72
2022/04/26 09:47:38;;;;;;;10.05;3.75;;;13.50;99.90;;;;;;5025628;28;20056;-72
2022/04/26 09:50:06;;;;;;;9.35;3.50;;;13.90;99.90;;;;;;5002082;28;20411;-71
2022/04/26 09:52:32;;;;;;;7.68;3.90;;;13.70;99.90;;;;;;5016463;28;20072;-72
2022/04/26 09:55:00;;;;;;;11.70;4.07;;;13.70;99.90;;;;;;5002229;28;20176;-72
2022/04/26 09:57:29;;;;;;;9.60;3.80;;;14.30;99.90;;;;;;5020554;28;20051;-71
2022/04/26 09:59:55;;;;;;;8.35;3.67;;;15.20;99.90;;;;;;5002378;28;20060;-72
2022/04/26 10:02:24;;;;;;;9.23;3.60;;;14.90;99.90;;;;;;4998958;28;20052;-72
2022/04/26 10:04:53;;;;;;;12.82;3.75;;;15.60;99.90;;;;;;4998092;28;20515;-72
2022/04/26 10:07:20;;;;;;;12.20;3.47;;;15.70;99.90;;;;;;5016341;28;20049;-72
2022/04/26 10:09:48;;;;;;;10.85;3.30;;;15.00;99.40;;;;;;4997041;28;20526;-72
2022/04/26 10:12:15;;;;;;;10.38;3.53;;;14.80;93.80;;;;;;5013707;28;20934;-73
2022/04/26 10:14:42;;;;;;;8.07;3.50;;;14.20;99.90;;;;;;5018598;28;20049;-72
2022/04/26 10:17:09;;;;;;;10.75;3.83;;;14.50;99.90;;;;;;4996566;28;20053;-72
2022/04/26 10:19:40;;;;;;;7.88;3.40;;;14.90;99.90;;;;;;5010267;28;20052;-72
2022/04/26 10:22:11;;;;;;;9.45;3.30;;;14.70;99.90;;;;;;5002871;28;20048;-72
2022/04/26 10:24:39;;;;;;;10.52;3.55;;;14.90;99.90;;;;;;4987637;28;20049;-72
2022/04/26 10:27:25;;;;;;;9.90;3.55;;;14.10;97.90;;;;;;4972788;28;20075;-72
2022/04/26 10:29:51;;;;;;;6.85;3.00;;;14.20;99.90;;;;;;5009893;28;20056;-72
2022/04/26 10:32:38;;;;;;;11.95;3.42;;;14.20;99.90;;;;;;4983272;28;20048;-72
2022/04/26 10:35:23;;;;;;;10.18;3.58;;;14.10;99.90;;;;;;4987451;28;20388;-72
2022/04/26 10:38:13;;;;;;;7.45;3.60;;;14.10;99.90;;;;;;4984542;28;20888;-72
2022/04/26 10:41:00;;;;;;;9.40;3.42;;;14.60;99.90;;;;;;4984059;28;20133;-72
2022/04/26 10:43:26;;;;;;;9.48;3.33;;;14.40;98.20;;;;;;5003189;28;20075;-72
2022/04/26 10:46:13;;;;;;;10.32;3.65;;;14.70;99.90;;;;;;4996188;28;20808;-71
2022/04/26 10:48:40;;;;;;;12.77;3.83;;;15.80;98.10;;;;;;4997285;28;20537;-72
2022/04/26 10:51:32;;;;;;;9.82;3.67;;;15.60;89.80;;;;;;4996424;28;20043;-69
2022/04/26 10:53:58;;;;;;;22.98;4.68;;;16.00;99.40;;;;;;4996389;28;20080;-71
2022/04/26 10:56:24;;;;;;;18.05;3.85;;;16.50;90.20;;;;;;4999764;28;20125;-72
2022/04/26 10:58:53;;;;;;;10.50;3.65;;;15.80;96.00;;;;;;4996884;28;20049;-72
2022/04/26 11:01:24;;;;;;;7.88;3.67;;;15.90;96.80;;;;;;5000014;28;20074;-72
2022/04/26 11:03:57;;;;;;;9.95;3.25;;;15.30;92.40;;;;;;5012918;28;20465;-71
2022/04/26 11:06:38;;;;;;;7.53;3.20;;;15.00;93.10;;;;;;5010443;28;20053;-71
2022/04/26 11:09:12;;;;;;;12.15;3.97;;;14.20;93.10;;;;;;4992023;28;20059;-72
2022/04/26 11:11:55;;;;;;;9.30;3.60;;;14.90;91.60;;;;;;5007904;28;20056;-72
2022/04/26 11:14:21;;;;;;;14.18;3.40;;;15.60;83.30;;;;;;4978394;28;21116;-71
2022/04/26 11:16:58;;;;;;;9.82;3.55;;;15.80;94.70;;;;;;4987536;28;20068;-70
2022/04/26 11:19:30;;;;;;;8.25;3.83;;;15.50;85.00;;;;;;5014667;28;20056;-72
2022/04/26 11:22:02;;;;;;;8.77;3.15;;;15.70;90.10;;;;;;5011107;28;20041;-72
2022/04/26 11:29:57;;;;;;;16.33;4.03;;;15.60;82.10;;;;;;5014142;28;20466;-72
2022/04/26 11:32:38;;;;;;;18.05;4.00;;;16.30;85.70;;;;;;5014917;28;20052;-71
2022/04/26 11:35:05;;;;;;;8.35;3.22;;;15.60;90.20;;;;;;5017557;28;20056;-72
2022/04/26 11:37:31;;;;;;;10.05;3.38;;;14.90;78.00;;;;;;4994596;28;20057;-73
2022/04/26 11:39:57;;;;;;;8.40;3.67;;;15.30;84.30;;;;;;5014926;28;20050;-71
2022/04/26 11:42:24;;;;;;;10.18;3.63;;;15.50;85.00;;;;;;4982360;28;20594;-72
2022/04/26 11:45:05;;;;;;;10.30;3.72;;;15.20;81.10;;;;;;5018236;28;20061;-72
2022/04/26 11:47:49;;;;;;;6.72;3.30;;;15.00;90.60;;;;;;5015667;28;20053;-72
2022/04/26 11:50:26;;;;;;;7.82;3.58;;;15.10;75.30;;;;;;5003824;28;20491;-72
2022/04/26 11:52:56;;;;;;;13.23;3.55;;;15.70;83.40;;;;;;5016783;28;20121;-72
2022/04/26 11:55:30;;;;;;;9.88;3.72;;;16.40;79.30;;;;;;5000387;28;20786;-73
2022/04/26 11:58:14;;;;;;;7.65;3.30;;;16.60;81.40;;;;;;5000873;28;20187;-72
2022/04/26 12:00:50;;;;;;;9.43;3.58;;;15.90;76.90;;;;;;5017979;28;20048;-72
2022/04/26 12:03:16;;;;;;;8.18;3.58;;;16.00;77.20;;;;;;5018820;28;20088;-72
2022/04/26 12:05:43;;;;;;;9.90;3.53;;;16.00;88.50;;;;;;5016494;28;21135;-72
2022/04/26 12:08:12;;;;;;;10.38;3.40;;;16.00;83.00;;;;;;5021937;28;20764;-72
2022/04/26 12:10:39;;;;;;;9.88;3.85;;;16.00;80.20;;;;;;5002769;28;20132;-72
2022/04/26 12:13:05;;;;;;;10.52;3.47;;;15.70;75.70;;;;;;4999308;28;21132;-72
2022/04/26 12:15:34;;;;;;;8.55;3.30;;;15.60;82.60;;;;;;5014552;28;20045;-72
2022/04/26 12:18:15;;;;;;;7.03;3.50;;;15.40;76.20;;;;;;5012865;28;20844;-72
2022/04/26 12:21:03;;;;;;;12.65;3.90;;;15.60;84.60;;;;;;5017394;28;20048;-72
2022/04/26 12:23:31;;;;;;;7.55;3.15;;;15.90;81.10;;;;;;5000085;28;20140;-72
2022/04/26 12:26:01;;;;;;;17.48;4.13;;;15.30;79.20;;;;;;5000621;28;20099;-72
2022/04/26 12:28:28;;;;;;;9.52;3.20;;;15.10;89.30;;;;;;4984461;28;20081;-72
2022/04/26 12:30:54;;;;;;;7.57;3.40;;;15.10;85.60;;;;;;5019916;28;20051;-72
2022/04/26 12:33:32;;;;;;;11.10;3.45;;;15.20;87.20;;;;;;5021975;28;20052;-72
2022/04/26 12:36:05;;;;;;;8.35;3.33;;;15.70;87.50;;;;;;5024229;28;20052;-72
2022/04/26 12:38:45;;;;;;;8.05;3.53;;;15.60;73.60;;;;;;5024077;28;20055;-72
2022/04/26 12:41:11;;;;;;;13.55;3.33;;;15.70;80.00;;;;;;5020566;28;20612;-72
2022/04/26 12:43:37;;;;;;;8.18;3.20;;;15.70;87.30;;;;;;4980866;28;20053;-72
2022/04/26 12:46:06;;;;;;;8.25;3.15;;;15.90;78.40;;;;;;4998470;28;20081;-72
2022/04/26 12:51:25;;;;;;;5.60;3.15;;;15.80;79.30;;;;;;4995641;28;20865;-72
2022/04/26 12:53:52;;;;;;;8.93;3.45;;;15.60;72.00;;;;;;4993746;28;20137;-72
2022/04/26 12:56:19;;;;;;;8.02;3.33;;;15.50;69.70;;;;;;4998473;28;20095;-72
2022/04/26 12:58:47;;;;;;;8.10;2.95;;;16.00;77.60;;;;;;4999250;28;20045;-72
2022/04/26 13:01:14;;;;;;;5.75;2.67;;;15.30;68.80;;;;;;4998147;28;20123;-72
2022/04/26 13:03:42;;;;;;;9.38;3.50;;;15.40;70.30;;;;;;4997572;28;20057;-71
2022/04/26 13:06:18;;;;;;;8.07;3.22;;;15.80;72.90;;;;;;4995066;28;20057;-72
2022/04/26 13:08:46;;;;;;;9.55;3.25;;;15.40;71.00;;;;;;4997792;28;20085;-72
2022/04/26 13:11:14;;;;;;;7.38;3.05;;;15.30;75.50;;;;;;5007911;28;20088;-72
2022/04/26 13:13:40;;;;;;;6.05;2.92;;;15.10;73.70;;;;;;4999137;28;20148;-72
2022/04/26 13:16:07;;;;;;;7.47;2.95;;;16.00;67.90;;;;;;5007960;28;20037;-73
2022/04/26 13:18:33;;;;;;;8.98;2.85;;;16.80;74.90;;;;;;5006990;28;20048;-72
2022/04/26 13:21:01;;;;;;;6.57;3.20;;;16.90;66.00;;;;;;5006337;28;20053;-72
2022/04/26 13:23:30;;;;;;;8.85;2.90;;;16.50;67.30;;;;;;5009411;28;20046;-73
2022/04/26 13:25:57;;;;;;;30.38;4.75;;;16.80;68.80;;;;;;5005339;28;20154;-73
2022/04/26 13:28:24;;;;;;;7.55;3.20;;;16.40;72.80;;;;;;5009067;28;20106;-72
2022/04/26 13:30:50;;;;;;;43.78;4.95;;;15.60;66.90;;;;;;5008419;28;20049;-72
2022/04/26 13:33:16;;;;;;;7.50;2.55;;;16.30;69.90;;;;;;5011271;28;20517;-72
2022/04/26 13:35:42;;;;;;;7.32;2.80;;;16.90;67.00;;;;;;5003821;28;20056;-71
2022/04/26 13:38:12;;;;;;;6.60;2.80;;;16.90;67.10;;;;;;5006476;28;20270;-72
2022/04/26 13:40:39;;;;;;;15.68;3.03;;;16.60;62.70;;;;;;5010260;28;20040;-72
2022/04/26 13:43:06;;;;;;;8.68;2.97;;;16.90;65.00;;;;;;5007374;28;20084;-72
2022/04/26 13:45:33;;;;;;;17.35;3.38;;;16.80;64.90;;;;;;5015455;28;20061;-72
2022/04/26 13:48:08;;;;;;;26.58;4.03;;;16.70;66.70;;;;;;5009124;28;20080;-72
2022/04/26 13:50:34;;;;;;;19.30;4.75;;;16.60;68.90;;;;;;5008822;28;20045;-72
2022/04/26 13:53:00;;;;;;;6.78;2.90;;;17.40;65.70;;;;;;5032902;28;20075;-72
2022/04/26 13:55:27;;;;;;;19.15;3.30;;;17.10;61.90;;;;;;5032456;28;20562;-70
2022/04/26 13:57:54;;;;;;;8.75;2.75;;;18.00;67.80;;;;;;5023929;28;20061;-69
2022/04/26 14:00:21;;;;;;;79.85;6.78;;;17.30;60.60;;;;;;5025796;28;20048;-72
2022/04/26 14:02:48;;;;;;;58.85;5.32;;;18.10;66.50;;;;;;5006285;28;20494;-72
2022/04/26 14:05:20;;;;;;;22.88;3.40;;;17.90;65.10;;;;;;5006177;28;20044;-72
2022/04/26 14:07:46;;;;;;;33.15;3.63;;;17.30;60.60;;;;;;5023094;28;20133;-73
2022/04/26 14:10:13;;;;;;;12.80;3.20;;;17.60;64.20;;;;;;5022620;28;20036;-73
2022/04/26 14:12:39;;;;;;;7.85;2.97;;;16.90;63.40;;;;;;5023617;28;20733;-73
2022/04/26 14:23:19;;;;;;;13.18;3.00;;;17.00;61.50;;;;;;5008622;28;20136;-72
2022/04/26 14:25:45;;;;;;;9.18;2.75;;;17.80;64.30;;;;;;5007471;28;20709;-71
2022/04/26 14:28:11;;;;;;;9.48;2.60;;;16.90;63.00;;;;;;5020075;28;20052;-72
2022/04/26 14:30:37;;;;;;;19.02;3.03;;;16.70;60.60;;;;;;4992023;28;20044;-72
2022/04/26 14:33:03;;;;;;;10.00;2.50;;;17.20;63.90;;;;;;5025774;28;20045;-72
2022/04/26 14:35:31;;;;;;;10.88;2.90;;;17.30;61.70;;;;;;5030152;28;20118;-72
2022/04/26 14:37:58;;;;;;;7.93;2.45;;;17.10;63.70;;;;;;5025425;28;20597;-72
2022/04/26 14:40:24;;;;;;;7.90;2.80;;;17.30;63.70;;;;;;5010556;28;20143;-72
2022/04/26 14:42:50;;;;;;;91.40;6.97;;;16.30;62.50;;;;;;5029985;28;20052;-72
2022/04/26 14:45:16;;;;;;;7.65;2.75;;;17.10;62.90;;;;;;5021054;28;20060;-72
2022/04/26 14:47:42;;;;;;;9.15;2.80;;;16.80;61.60;;;;;;5024187;28;20052;-71
2022/04/26 14:50:09;;;;;;;13.48;2.92;;;17.60;64.00;;;;;;5027757;28;20051;-72
2022/04/26 14:52:36;;;;;;;6.47;2.83;;;17.10;61.80;;;;;;5031560;28;20123;-72
2022/04/26 14:55:10;;;;;;;14.10;3.10;;;17.10;58.60;;;;;;5028646;28;20174;-72
2022/04/26 14:57:37;;;;;;;7.15;2.70;;;17.40;63.30;;;;;;5010016;28;20056;-72
2022/04/26 15:00:07;;;;;;;7.47;2.80;;;17.50;59.70;;;;;;5023656;28;20105;-74
2022/04/26 15:02:40;;;;;;;8.85;2.85;;;17.50;64.80;;;;;;5026269;28;20037;-72
2022/04/26 15:05:08;;;;;;;7.97;2.83;;;17.10;61.70;;;;;;5013212;28;20057;-74
2022/04/26 15:10:21;;;;;;;11.60;2.65;;;17.90;62.40;;;;;;5026530;28;20510;-73
2022/04/26 15:18:21;;;;;;;21.77;3.38;;;17.40;58.90;;;;;;5023315;28;20084;-73
2022/04/26 15:20:54;;;;;;;6.70;2.45;;;17.40;61.80;;;;;;5026414;28;20053;-71
2022/04/26 15:23:22;;;;;;;5.43;2.30;;;17.30;59.50;;;;;;5022697;28;20072;-71
2022/04/26 15:25:52;;;;;;;5.15;2.33;;;17.10;61.00;;;;;;5000923;28;20496;-71
2022/04/26 15:28:19;;;;;;;7.47;2.78;;;16.80;60.50;;;;;;5021273;28;20072;-71
2022/04/26 15:30:45;;;;;;;6.70;2.60;;;16.80;58.90;;;;;;5023302;28;20467;-71
2022/04/26 15:33:12;;;;;;;8.82;2.97;;;16.30;59.10;;;;;;5013649;28;20041;-71
2022/04/26 15:35:38;;;;;;;7.47;2.70;;;16.70;62.60;;;;;;5018295;28;20071;-70
2022/04/26 15:38:22;;;;;;;6.97;2.42;;;17.10;65.00;;;;;;5017902;28;20111;-71
2022/04/26 15:40:50;;;;;;;7.13;2.55;;;16.60;59.60;;;;;;5022021;28;20053;-71
2022/04/26 15:43:16;;;;;;;9.07;2.78;;;16.80;62.40;;;;;;5007138;28;20063;-71
2022/04/26 15:46:10;;;;;;;7.53;2.60;;;17.10;61.70;;;;;;4990082;28;20061;-71
2022/04/26 15:48:44;;;;;;;6.13;2.45;;;17.30;63.60;;;;;;5000319;28;20178;-71
2022/04/26 15:51:10;;;;;;;;;;;17.00;62.20;;;;;;5005918;28;20060;-71
2022/04/26 15:53:37;;;;;;;6.60;2.50;;;16.70;59.30;;;;;;5002086;28;19968;-72
2022/04/26 15:56:03;;;;;;;5.18;2.25;;;16.70;62.30;;;;;;5002922;28;20049;-71
2022/04/26 15:58:30;;;;;;;8.73;2.65;;;16.90;64.60;;;;;;5005065;28;20838;-71
2022/04/26 16:00:57;;;;;;;6.10;2.65;;;16.60;64.00;;;;;;5004665;28;20104;-71
2022/04/26 16:03:23;;;;;;;6.82;2.58;;;17.00;64.40;;;;;;5010132;28;20547;-71
2022/04/26 16:05:49;;;;;;;7.10;2.22;;;17.50;64.50;;;;;;5026599;28;20114;-70
2022/04/26 16:08:15;;;;;;;6.47;2.05;;;17.00;59.70;;;;;;5012512;28;20621;-71
2022/04/26 16:21:39;;;;;;;7.97;2.60;;;16.60;63.40;;;;;;4990317;28;20178;-71
2022/04/26 16:24:06;;;;;;;15.13;2.92;;;16.10;64.70;;;;;;5001317;28;20057;-71
2022/04/26 16:26:34;;;;;;;7.78;2.40;;;15.80;66.40;;;;;;4998599;28;20042;-71
2022/04/26 16:29:01;;;;;;;8.43;2.58;;;15.30;65.10;;;;;;5001251;28;20659;-71
2022/04/26 16:31:32;;;;;;;5.70;2.58;;;15.40;64.90;;;;;;4106044;28;10000761;-71
2022/04/26 16:34:00;;;;;;;6.85;2.70;;;15.70;66.30;;;;;;4989288;28;20049;-71
2022/04/26 16:36:28;;;;;;;4.60;2.33;;;15.70;67.50;;;;;;4999182;28;20060;-71
2022/04/26 16:38:54;;;;;;;7.68;2.53;;;15.50;67.20;;;;;;4995167;28;20057;-71
2022/04/26 16:41:21;;;;;;;9.05;3.00;;;15.30;67.10;;;;;;5002971;28;20045;-71
2022/04/26 16:43:48;;;;;;;7.38;2.97;;;15.20;69.00;;;;;;5001878;28;20823;-71
2022/04/26 16:46:19;;;;;;;6.88;2.70;;;14.90;68.00;;;;;;5003646;28;20206;-70
2022/04/26 16:48:45;;;;;;;7.07;2.65;;;15.10;69.90;;;;;;5026156;28;20044;-71
2022/04/26 16:51:11;;;;;;;7.85;2.83;;;14.60;69.10;;;;;;5023761;28;20707;-71
2022/04/26 16:53:38;;;;;;;9.02;2.70;;;14.60;71.50;;;;;;5023000;28;22267;-71
2022/04/26 16:56:04;;;;;;;5.80;2.65;;;14.20;70.40;;;;;;5028803;28;20055;-71
2022/04/26 16:58:31;;;;;;;7.03;2.70;;;14.20;73.10;;;;;;5020990;28;20044;-71
2022/04/26 17:00:57;;;;;;;9.48;2.90;;;14.10;73.40;;;;;;5023742;28;20045;-71
2022/04/26 17:03:23;;;;;;;6.15;2.22;;;14.40;73.50;;;;;;5023225;28;20048;-71
2022/04/26 17:05:49;;;;;;;8.52;2.63;;;14.00;73.30;;;;;;5017950;28;20060;-71
2022/04/26 17:08:17;;;;;;;6.97;2.55;;;13.90;75.30;;;;;;5005941;28;20055;-71
2022/04/26 17:10:44;;;;;;;7.50;2.42;;;14.10;80.10;;;;;;4990694;28;21378;-71
2022/04/26 17:13:10;;;;;;;6.57;2.67;;;13.70;74.10;;;;;;5011372;28;20136;-71
2022/04/26 17:15:36;;;;;;;15.02;2.78;;;13.70;78.00;;;;;;5029591;28;20051;-71
2022/04/26 17:18:03;;;;;;;6.40;2.50;;;13.80;79.30;;;;;;5023985;28;20083;-71